Time;durP1;ratioP1;P1;durP2;ratioP2;P2;SDS_P1;SDS_P2;PMS_P1;PMS_P2;Temp;Humidity;BMP_temperature;BMP_pressure;BME280_temperature;BME280_humidity;BME280_pressure;Samples;Min_cycle;Max_cycle;Signal;HPM_P1;HPM_P2
2022/09/22 04:30:42;;;;;;;7.45;6.20;;;;;;;6.79;100.00;100824.63;6626845;26;277593;31
2022/09/22 04:37:37;;;;;;;7.15;5.72;;;;;;;6.69;100.00;100831.91;6654684;26;20316;-90
2022/09/22 04:40:41;;;;;;;8.55;5.93;;;;;;;6.71;100.00;100836.25;6671924;26;34121;-90
2022/09/22 04:43:44;;;;;;;7.85;6.18;;;;;;;6.82;100.00;100835.94;6666844;26;33858;-90
2022/09/22 04:46:48;;;;;;;10.18;6.62;;;;;;;6.83;100.00;100837.66;6670285;26;34969;-90
2022/09/22 04:49:50;;;;;;;8.98;6.30;;;;;;;6.70;100.00;100833.63;6668359;26;34295;-90
2022/09/22 04:52:55;;;;;;;9.25;6.70;;;;;;;6.65;100.00;100832.88;6671695;26;34444;-87
2022/09/22 04:55:57;;;;;;;9.38;6.62;;;;;;;6.72;100.00;100837.09;6649435;26;32454;-87
2022/09/22 04:59:01;;;;;;;8.95;6.82;;;;;;;6.82;100.00;100835.06;6669667;26;34949;-89
2022/09/22 05:02:03;;;;;;;8.30;7.10;;;;;;;6.67;100.00;100831.94;6668663;26;33764;-90
2022/09/22 05:05:07;;;;;;;9.10;7.40;;;;;;;6.67;100.00;100836.34;6669225;26;33914;-87
2022/09/22 05:08:09;;;;;;;12.30;7.15;;;;;;;6.64;100.00;100831.16;6669644;26;33669;-88
2022/09/22 05:11:13;;;;;;;9.65;6.90;;;;;;;6.64;100.00;100836.44;6669503;26;34619;-88
2022/09/22 05:14:16;;;;;;;7.80;6.03;;;;;;;6.62;100.00;100833.81;6669373;26;34064;-88
2022/09/22 05:17:24;;;;;;;7.85;6.43;;;;;;;6.71;100.00;100832.72;6649682;26;33877;-88
2022/09/22 05:20:26;;;;;;;8.60;7.12;;;;;;;6.83;100.00;100827.13;6669132;26;34045;-90
2022/09/22 05:23:31;;;;;;;8.95;6.80;;;;;;;6.92;100.00;100830.41;6668540;26;34114;-88
2022/09/22 05:26:33;;;;;;;8.82;6.20;;;;;;;6.93;100.00;100834.81;6670715;26;33979;-88
2022/09/22 05:29:36;;;;;;;9.80;6.05;;;;;;;7.01;100.00;100832.81;6666938;26;33964;-89
2022/09/22 05:36:21;;;;;;;8.10;6.75;;;;;;;7.24;100.00;100837.44;6661497;26;20048;-89
2022/09/22 05:39:24;;;;;;;10.23;6.10;;;;;;;7.32;100.00;100837.22;6663050;26;34747;-89
2022/09/22 05:42:28;;;;;;;9.73;6.30;;;;;;;7.33;100.00;100835.47;6660657;26;33583;-88
2022/09/22 05:45:34;;;;;;;9.70;6.18;;;;;;;7.39;100.00;100844.06;6606097;26;34511;-88
2022/09/22 05:48:36;;;;;;;11.40;6.50;;;;;;;7.47;100.00;100840.31;6665760;26;34053;-88
2022/09/22 05:51:40;;;;;;;7.12;5.78;;;;;;;7.58;100.00;100835.59;6664670;26;35272;-88
2022/09/22 05:54:42;;;;;;;8.48;6.07;;;;;;;7.76;100.00;100847.37;6662368;26;34484;-89
2022/09/22 06:01:25;;;;;;;10.15;6.12;;;;;;;8.87;100.00;100842.06;6664638;26;20151;-88
2022/09/22 06:04:28;;;;;;;9.52;5.53;;;;;;;9.32;100.00;100844.91;6656104;26;34247;-89
2022/09/22 06:07:31;;;;;;;7.28;5.65;;;;;;;9.47;100.00;100839.94;6662453;26;33927;-90
2022/09/22 06:14:20;;;;;;;6.72;4.75;;;;;;;9.86;97.48;100844.59;6654612;26;20071;-89
2022/09/22 06:28:45;;;;;;;7.68;4.78;;;;;;;10.13;94.87;100849.75;6669951;26;20055;-90
2022/09/22 06:31:48;;;;;;;5.57;5.00;;;;;;;10.16;94.87;100852.25;6677781;26;35120;-89
2022/09/22 06:38:30;;;;;;;6.18;4.82;;;;;;;10.12;95.09;100856.00;6663638;26;20048;-88
2022/09/22 06:41:33;;;;;;;9.68;4.62;;;;;;;10.33;94.39;100851.59;6659534;26;34532;-88
2022/09/22 06:44:36;;;;;;;8.15;4.60;;;;;;;10.37;96.04;100849.69;6661856;26;33571;-87
2022/09/22 06:47:41;;;;;;;7.95;5.07;;;;;;;10.59;93.25;100844.38;6662945;26;34611;-87
2022/09/22 06:50:50;;;;;;;6.55;5.03;;;;;;;10.77;91.17;100845.38;6679007;26;34979;-87
2022/09/22 06:53:54;;;;;;;8.90;4.40;;;;;;;10.89;89.34;100840.47;6666948;26;35231;-92
2022/09/22 06:56:56;;;;;;;6.30;4.40;;;;;;;11.29;88.30;100844.00;6661741;26;34024;-92
2022/09/22 06:59:59;;;;;;;6.28;4.35;;;;;;;11.41;86.76;100842.56;6661579;26;35096;-92
2022/09/22 07:03:12;;;;;;;5.35;4.10;;;;;;;11.64;86.92;100845.97;6662990;26;34242;-90
2022/09/22 07:06:18;;;;;;;7.82;4.00;;;;;;;11.63;84.33;100843.37;6655352;26;33999;-89
2022/09/22 07:09:22;;;;;;;4.72;4.25;;;;;;;11.97;83.64;100844.44;6640931;26;32871;-90
2022/09/22 07:12:25;;;;;;;6.40;4.40;;;;;;;12.29;82.88;100841.16;6662244;26;33809;-88
2022/09/22 07:15:29;;;;;;;5.80;4.28;;;;;;;12.85;80.20;100841.03;6662020;26;34258;-88
2022/09/22 07:18:33;;;;;;;6.72;4.10;;;;;;;13.30;78.52;100836.00;6661996;26;35453;-87
2022/09/22 07:21:36;;;;;;;11.80;4.60;;;;;;;13.56;75.33;100837.28;6662140;26;34678;-88
2022/09/22 07:24:40;;;;;;;5.60;3.80;;;;;;;14.02;75.02;100841.88;6663169;26;33501;-88
2022/09/22 07:27:43;;;;;;;7.95;4.00;;;;;;;14.61;72.26;100844.75;6661839;26;33858;-88
2022/09/22 07:30:46;;;;;;;5.70;3.80;;;;;;;15.16;70.48;100837.91;6668955;26;33881;-87
2022/09/22 07:33:51;;;;;;;7.35;3.58;;;;;;;15.28;66.56;100846.13;6677974;26;35147;-86
2022/09/22 07:36:54;;;;;;;4.55;3.62;;;;;;;15.65;66.40;100843.81;6676741;26;35175;-87
2022/09/22 07:39:59;;;;;;;5.82;4.37;;;;;;;15.66;66.47;100850.00;6653261;26;32713;-86
2022/09/22 07:43:02;;;;;;;5.00;3.60;;;;;;;15.60;68.00;100848.59;6660987;26;33762;-87
2022/09/22 07:46:05;;;;;;;6.57;4.20;;;;;;;15.88;66.37;100861.06;6659519;26;33963;-87
2022/09/22 07:49:08;;;;;;;4.60;3.70;;;;;;;15.84;67.05;100853.34;6661933;26;33431;-87
2022/09/22 07:52:12;;;;;;;4.78;3.42;;;;;;;15.94;66.78;100851.78;6661303;26;34238;-85
2022/09/22 07:55:17;;;;;;;11.23;4.20;;;;;;;15.73;67.04;100864.69;6660916;26;34124;-88
2022/09/22 07:58:20;;;;;;;6.60;3.67;;;;;;;15.92;69.04;100856.38;6662365;26;33534;-89
2022/09/22 08:01:25;;;;;;;8.40;4.50;;;;;;;16.57;66.97;100856.63;6658244;26;34127;-90
2022/09/22 08:04:30;;;;;;;7.15;4.10;;;;;;;17.75;60.86;100863.72;6635513;26;33047;-88
2022/09/22 08:07:36;;;;;;;8.00;4.22;;;;;;;20.44;52.66;100852.91;6661546;26;34183;-88
2022/09/22 08:10:38;;;;;;;11.52;4.00;;;;;;;24.35;42.27;100849.75;6658672;26;33901;-87
2022/09/22 08:13:43;;;;;;;5.82;4.07;;;;;;;26.80;36.65;100851.28;6639845;26;33716;-88
2022/09/22 08:16:48;;;;;;;10.50;4.18;;;;;;;27.20;34.54;100860.41;6640405;26;33267;-88
2022/09/22 08:19:50;;;;;;;7.20;3.90;;;;;;;27.13;34.11;100856.69;6640838;26;32357;-89
2022/09/22 08:22:56;;;;;;;9.10;3.58;;;;;;;27.32;31.99;100869.06;6639494;26;33173;-88
2022/09/22 08:26:07;;;;;;;5.78;4.15;;;;;;;25.82;35.10;100866.31;6660366;26;33829;-89
2022/09/22 08:29:10;;;;;;;;;;;;;;;24.71;36.48;100863.28;6661402;26;34239;-89
2022/09/22 08:32:16;;;;;;;6.28;4.00;;;;;;;23.83;38.88;100864.75;6660982;26;34067;-88
2022/09/22 08:35:19;;;;;;;5.05;3.75;;;;;;;22.70;42.48;100863.72;6660380;26;33878;-89
2022/09/22 09:01:59;;;;;;;5.95;3.17;;;;;;;20.76;41.60;100846.59;6655444;26;20071;-89
2022/09/22 09:05:27;;;;;;;3.20;2.90;;;;;;;20.20;43.79;100840.50;6620520;26;34523;-88
2022/09/22 09:12:36;;;;;;;3.40;2.47;;;;;;;20.56;42.13;100845.59;6665290;26;20059;-88
2022/09/22 09:16:02;;;;;;;4.72;2.55;;;;;;;20.03;42.13;100842.78;6656644;26;34990;-88
2022/09/22 09:19:37;;;;;;;2.53;2.33;;;;;;;20.02;42.33;100850.97;6664640;26;34064;-88
2022/09/22 09:22:46;;;;;;;3.45;2.60;;;;;;;19.49;43.39;100849.81;6662623;26;33779;-88
2022/09/22 09:25:55;;;;;;;2.60;2.40;;;;;;;19.20;44.91;100847.59;6670158;26;33832;-89
2022/09/22 09:29:02;;;;;;;4.87;2.70;;;;;;;19.24;45.38;100846.38;6662274;26;33902;-88
2022/09/22 09:32:17;;;;;;;3.85;2.60;;;;;;;19.40;43.85;100851.38;6661834;26;34560;-89
2022/09/22 09:35:49;;;;;;;5.70;2.97;;;;;;;19.42;44.68;100853.97;6661501;26;36177;-89
2022/09/22 09:38:55;;;;;;;3.47;2.80;;;;;;;19.22;46.17;100849.19;6664681;26;34813;-89
2022/09/22 09:42:01;;;;;;;3.08;2.87;;;;;;;19.39;45.06;100849.69;6666903;26;34540;-88
2022/09/22 09:45:04;;;;;;;2.70;2.50;;;;;;;20.23;44.66;100847.47;6674801;26;33876;-88
2022/09/22 09:48:15;;;;;;;4.12;2.72;;;;;;;21.06;42.16;100853.06;6664316;26;33667;-89
2022/09/22 09:51:18;;;;;;;6.35;2.55;;;;;;;21.03;42.38;100849.78;6661655;26;34324;-89
2022/09/22 09:54:22;;;;;;;3.47;2.70;;;;;;;22.08;40.11;100848.59;6662490;26;35015;-89
2022/09/22 09:57:26;;;;;;;3.70;2.67;;;;;;;21.75;38.66;100848.00;6664926;26;34049;-89
2022/09/22 10:00:30;;;;;;;3.15;2.60;;;;;;;21.25;40.75;100846.94;6663758;26;33860;-89
2022/09/22 10:07:26;;;;;;;2.70;2.50;;;;;;;22.55;39.06;100844.41;6666582;26;20043;-88
2022/09/22 10:25:30;;;;;;;3.15;2.20;;;;;;;23.40;34.16;100837.34;6665186;26;20066;-89
2022/09/22 10:28:35;;;;;;;2.93;2.10;;;;;;;24.27;33.20;100838.81;6667198;26;33914;-89
2022/09/22 13:21:39;;;;;;;6.35;3.75;;;;;;;16.65;61.97;100724.87;6646570;26;20387;-89
2022/09/22 13:51:38;;;;;;;7.55;4.30;;;;;;;16.29;64.41;100689.81;6657799;26;20090;-89
2022/09/22 14:09:36;;;;;;;5.15;4.10;;;;;;;16.15;61.93;100683.59;6663452;26;20066;-89
2022/09/22 14:12:39;;;;;;;7.18;3.80;;;;;;;16.35;60.20;100686.72;6656011;26;33960;-88
2022/09/22 14:15:42;;;;;;;5.97;4.20;;;;;;;16.47;59.64;100678.78;6647316;26;34146;-88
2022/09/22 14:18:52;;;;;;;4.05;3.60;;;;;;;16.19;58.39;100686.09;6662938;26;34378;-89
2022/09/22 14:21:57;;;;;;;4.15;3.53;;;;;;;16.26;57.20;100677.53;6634850;26;33471;-89
2022/09/22 14:28:45;;;;;;;5.03;3.95;;;;;;;16.21;57.85;100673.44;6662572;26;20059;-88
2022/09/22 14:32:01;;;;;;;5.90;4.07;;;;;;;16.40;57.91;100668.53;6656565;26;34805;-87
2022/09/22 14:35:07;;;;;;;4.03;3.62;;;;;;;16.08;59.19;100679.62;6662531;26;34583;-88
2022/09/22 14:38:19;;;;;;;7.70;4.10;;;;;;;16.37;57.27;100675.91;6665987;26;34749;-87
2022/09/22 14:41:25;;;;;;;3.95;3.58;;;;;;;16.13;58.13;100673.97;6658966;26;33870;-87
2022/09/22 14:44:43;;;;;;;4.53;3.75;;;;;;;15.92;57.20;100679.81;6663547;26;34132;-88
2022/09/22 14:47:46;;;;;;;4.45;3.50;;;;;;;15.75;57.57;100676.41;6659595;26;34386;-88
2022/09/22 14:51:05;;;;;;;4.10;3.70;;;;;;;15.70;58.60;100678.53;6656232;26;33853;-87
2022/09/22 14:54:14;;;;;;;4.35;3.87;;;;;;;15.59;58.14;100673.91;6663624;26;34414;-87
2022/09/22 14:57:17;;;;;;;5.40;3.60;;;;;;;15.34;60.57;100672.84;6626252;26;32815;-88
2022/09/22 15:03:45;;;;;;;5.32;3.50;;;;;;;15.32;62.06;100674.78;6636030;26;34614;-88
2022/09/22 15:06:55;;;;;;;3.87;3.50;;;;;;;15.28;62.79;100670.59;6635774;26;35821;-88
2022/09/22 15:10:06;;;;;;;4.00;3.60;;;;;;;15.36;63.47;100676.31;6629429;26;33009;-87
2022/09/22 15:13:25;;;;;;;4.28;3.75;;;;;;;15.17;63.83;100673.97;6656190;26;35299;-87
2022/09/22 15:16:42;;;;;;;4.32;3.87;;;;;;;15.03;65.83;100674.00;6587256;26;32248;-87
2022/09/22 15:23:40;;;;;;;5.80;3.72;;;;;;;14.98;64.03;100668.09;6657424;26;20067;-87
2022/09/22 15:26:43;;;;;;;4.15;3.65;;;;;;;15.03;65.35;100668.66;6638407;26;33213;-87
2022/09/22 15:29:48;;;;;;;6.82;3.70;;;;;;;15.18;65.31;100672.13;6664160;26;33902;-87
2022/09/22 15:32:51;;;;;;;4.55;3.92;;;;;;;15.02;65.99;100672.25;6658233;26;34847;-87
2022/09/22 15:36:01;;;;;;;12.57;3.78;;;;;;;14.98;66.25;100671.59;6663330;26;34559;-88
2022/09/22 15:39:07;;;;;;;6.18;3.80;;;;;;;14.90;66.93;100676.59;6661778;26;33879;-87
